Terminal Aerodrome Forecast
Issued by NWS

Home | Current Version | Previous Version | Text Only | Print | Product List | Glossary On
Versions: 1 2 3 4 5 6 7 8 9 10 11 12 13 14 15 16 17 18 19 20 21
000
FTUS46 KPDT 061137
TAFBDN
TAF
KBDN 061137Z 0612/0712 34008KT P6SM BKN003 OVC015
      TEMPO 0613/0615 SCT002 BKN025
     FM061500 35006KT 6SM BR FEW006 SCT025 BKN050
     FM061800 35014G22KT P6SM SCT050 SCT250
     FM062300 36016G24KT P6SM VCTS SCT045CB BKN080
     FM070200 35008KT P6SM FEW050 BKN090=

USA.gov is the U.S. government's official web portal to all federal, state and local government web resources and services.